CPX229 Details

Departure: Seattle-Tacoma International Airport (KSEA) at 1730 UTC
Arrival: Ted Stevens Anchorage International Airport (PANC) at 2115 UTC
Route: BANGR9 ARRIE FOCHE PRYCE BKA LAIRE JOH WITTI4
Notes:


Current Weather Information
KSEA 191553Z 14006KT 10SM FEW014 BKN028 OVC037 17/12 A3001 RMK AO2 SLP167 T01720122
PANC 191553Z 00000KT 10SM BKN025 BKN200 09/02 A2995 RMK AO2 SLP142 FU BKN025 T00890022